createdAt,value
2018-09-04T00:00:27.550Z,17.6
2018-09-04T00:01:18.208Z,17.6
2018-09-04T00:02:08.251Z,17.6
2018-09-04T00:02:58.092Z,17.6
2018-09-04T00:03:47.885Z,17.6
2018-09-04T00:04:38.710Z,17.6
2018-09-04T00:05:28.536Z,17.6
2018-09-04T00:06:18.623Z,17.6
2018-09-04T00:07:08.376Z,17.6
2018-09-04T00:07:58.423Z,17.6
2018-09-04T00:08:49.023Z,17.6
2018-09-04T00:09:38.844Z,17.6
2018-09-04T00:10:28.972Z,17.5
2018-09-04T00:11:18.979Z,17.5
2018-09-04T00:12:09.036Z,17.6
2018-09-04T00:31:40.249Z,17.4
2018-09-04T00:32:30.874Z,17.4
2018-09-04T00:33:20.644Z,17.4
2018-09-04T00:34:10.959Z,17.4
2018-09-04T00:35:00.785Z,17.4
2018-09-04T00:35:51.108Z,17.4
2018-09-04T00:36:40.946Z,17.4
2018-09-04T00:37:30.675Z,17.4
2018-09-04T00:38:21.301Z,17.4
2018-09-04T00:39:11.376Z,17.3
2018-09-04T00:40:01.166Z,17.3
2018-09-04T00:40:51.203Z,17.3
2018-09-04T00:41:41.782Z,17.3
2018-09-04T00:42:31.659Z,17.3
2018-09-04T00:43:21.671Z,17.3
2018-09-04T00:44:10.593Z,17.3
2018-09-04T00:45:01.549Z,17.3
2018-09-04T00:45:51.592Z,17.2
2018-09-04T00:46:41.970Z,17.2
2018-09-04T00:47:32.028Z,17.1
2018-09-04T00:48:22.058Z,17.2
2018-09-04T00:49:11.575Z,17.2
2018-09-04T00:50:01.939Z,17.1
2018-09-04T00:50:51.687Z,17.1
2018-09-04T00:51:41.995Z,17.1
2018-09-04T00:53:21.895Z,17.1
2018-09-04T00:54:11.953Z,17.1
2018-09-04T00:57:32.452Z,16.9
2018-09-04T00:58:22.587Z,16.9
2018-09-04T00:59:12.353Z,16.9
2018-09-04T01:00:02.809Z,16.8
2018-09-04T01:00:52.747Z,16.8
2018-09-04T01:01:42.821Z,16.8
2018-09-04T01:02:33.179Z,16.8
2018-09-04T01:03:22.936Z,16.8
2018-09-04T01:04:13.009Z,16.8
2018-09-04T01:05:03.387Z,16.8
2018-09-04T01:05:53.437Z,16.8
2018-09-04T01:06:43.204Z,16.7
2018-09-04T01:07:33.507Z,16.8
2018-09-04T01:08:23.051Z,16.8
2018-09-04T01:09:13.105Z,16.7
2018-09-04T01:10:03.999Z,16.7
2018-09-04T01:10:53.238Z,16.7
2018-09-04T01:11:43.604Z,16.7
2018-09-04T01:12:33.632Z,16.7
2018-09-04T01:13:24.032Z,16.8
2018-09-04T01:14:14.089Z,16.8
2018-09-04T01:15:03.840Z,16.8
2018-09-04T01:15:53.618Z,16.8
2018-09-04T01:16:43.694Z,16.8
2018-09-04T01:17:34.030Z,16.8
2018-09-04T01:18:24.403Z,16.8
2018-09-04T01:19:14.171Z,16.8
2018-09-04T01:20:04.536Z,16.8
2018-09-04T01:20:54.283Z,16.8
2018-09-04T01:21:44.673Z,16.8
2018-09-04T01:22:34.746Z,16.8
2018-09-04T01:23:24.223Z,16.9
2018-09-04T01:24:14.848Z,16.9
2018-09-04T01:25:04.914Z,16.9
2018-09-04T01:25:54.388Z,16.9
2018-09-04T01:26:44.455Z,16.9
2018-09-04T01:27:34.813Z,16.8
2018-09-04T01:28:25.215Z,16.8
2018-09-04T01:29:15.238Z,16.8
2018-09-04T01:30:05.320Z,16.8
2018-09-04T01:30:55.075Z,16.8
2018-09-04T01:31:45.171Z,16.8
2018-09-04T01:32:35.218Z,16.8
2018-09-04T01:33:25.584Z,16.8
2018-09-04T01:34:15.335Z,16.8
2018-09-04T01:35:05.685Z,16.8
2018-09-04T01:35:55.455Z,16.8
2018-09-04T01:36:45.237Z,16.8
2018-09-04T01:37:35.897Z,16.8
2018-09-04T01:38:25.655Z,16.8
2018-09-04T01:39:16.224Z,16.8
2018-09-04T01:40:06.080Z,16.7
2018-09-04T01:40:55.576Z,16.7
2018-09-04T01:41:45.634Z,16.7
2018-09-04T01:42:36.284Z,16.7
2018-09-04T01:43:26.028Z,16.7
2018-09-04T01:44:15.860Z,16.7
2018-09-04T01:45:06.167Z,16.7
2018-09-04T01:45:56.224Z,16.7
2018-09-04T01:46:46.582Z,16.6
2018-09-04T01:47:36.062Z,16.6
2018-09-04T01:48:26.697Z,16.6
2018-09-04T01:49:16.467Z,16.6
2018-09-04T01:50:06.844Z,16.6
2018-09-04T01:50:57.152Z,16.6
2018-09-04T01:51:46.689Z,16.6
2018-09-04T01:52:37.041Z,16.6
2018-09-04T01:53:27.091Z,16.6
2018-09-04T01:54:17.123Z,16.6
2018-09-04T01:55:06.954Z,16.6
2018-09-04T01:55:56.711Z,16.6
2018-09-04T01:56:47.073Z,16.6
2018-09-04T01:57:36.574Z,16.6
2018-09-04T01:58:27.763Z,16.6
2018-09-04T01:59:17.271Z,16.6
2018-09-04T02:00:06.773Z,16.6
2018-09-04T02:00:57.652Z,16.6
2018-09-04T02:01:47.161Z,16.6
2018-09-04T02:02:37.524Z,16.6
2018-09-04T02:03:27.370Z,16.6
2018-09-04T02:04:17.070Z,16.5
2018-09-04T02:05:08.013Z,16.6
2018-09-04T02:05:58.069Z,16.6
2018-09-04T02:06:47.836Z,16.6
2018-09-04T02:07:37.916Z,16.6
2018-09-04T02:08:27.640Z,16.6
2018-09-04T02:09:17.778Z,16.6
2018-09-04T02:10:08.406Z,16.6
2018-09-04T02:10:58.460Z,16.6
2018-09-04T02:11:48.775Z,16.5
2018-09-04T02:12:38.280Z,16.5
2018-09-04T02:13:28.903Z,16.6
2018-09-04T02:14:18.437Z,16.6
2018-09-04T02:15:08.467Z,16.6
2018-09-04T02:15:58.860Z,16.6
2018-09-04T02:16:49.168Z,16.6
2018-09-04T02:17:38.675Z,16.6
2018-09-04T02:18:28.460Z,16.6
2018-09-04T02:19:19.090Z,16.6
2018-09-04T02:20:08.853Z,16.6
2018-09-04T02:20:58.946Z,16.6
2018-09-04T02:21:48.997Z,16.6
2018-09-04T02:22:38.794Z,16.6
2018-09-04T02:23:29.118Z,16.6
2018-09-04T02:24:19.194Z,16.6
2018-09-04T02:25:09.602Z,16.5
2018-09-04T02:25:59.633Z,16.5
2018-09-04T02:26:49.667Z,16.6
2018-09-04T02:27:39.471Z,16.6
2018-09-04T02:28:29.525Z,16.6
2018-09-04T02:29:20.127Z,16.5
2018-09-04T02:30:09.651Z,16.6
2018-09-04T02:31:00.010Z,16.5
2018-09-04T02:31:49.781Z,16.5
2018-09-04T02:32:39.586Z,16.6
2018-09-04T02:33:29.925Z,16.6
2018-09-04T02:34:20.499Z,16.6
2018-09-04T02:35:10.067Z,16.6
2018-09-04T02:35:59.851Z,16.6
2018-09-04T02:36:50.513Z,16.6
2018-09-04T02:37:39.680Z,16.5
2018-09-04T02:38:30.296Z,16.4
2018-09-04T02:39:20.632Z,16.4
2018-09-04T02:40:10.163Z,16.4
2018-09-04T02:41:00.545Z,16.4
2018-09-04T02:41:50.554Z,16.5
2018-09-04T02:42:40.334Z,16.5
2018-09-04T02:43:30.695Z,16.6
2018-09-04T02:44:20.749Z,16.6
2018-09-04T02:45:10.794Z,16.6
2018-09-04T02:46:00.871Z,16.6
2018-09-04T02:46:51.223Z,16.6
2018-09-04T02:47:41.013Z,16.4
2018-09-04T02:48:31.358Z,16.4
2018-09-04T02:49:21.125Z,16.4
2018-09-04T02:50:11.736Z,16.5
2018-09-04T02:51:01.245Z,16.6
2018-09-04T02:51:51.310Z,16.6
2018-09-04T02:52:41.932Z,16.6
2018-09-04T02:53:31.740Z,16.6
2018-09-04T02:54:21.235Z,16.6
2018-09-04T02:55:11.285Z,16.6
2018-09-04T02:56:01.920Z,16.6
2018-09-04T02:56:51.713Z,16.6
2018-09-04T02:57:41.778Z,16.5
2018-09-04T02:58:31.532Z,16.4
2018-09-04T02:59:22.205Z,16.4
2018-09-04T03:00:12.515Z,16.3
2018-09-04T03:01:02.320Z,16.3
2018-09-04T03:01:52.135Z,16.3
2018-09-04T03:02:41.882Z,16.3
2018-09-04T03:03:32.228Z,16.3
2018-09-04T03:04:22.569Z,16.3
2018-09-04T03:05:12.886Z,16.3
2018-09-04T03:06:02.420Z,16.3
2018-09-04T03:06:52.759Z,16.3
2018-09-04T03:07:42.833Z,16.3
2018-09-04T03:08:32.612Z,16.3
2018-09-04T03:09:22.386Z,16.3
2018-09-04T03:10:12.731Z,16.3
2018-09-04T03:11:03.063Z,16.3
2018-09-04T03:11:53.211Z,16.2
2018-09-04T03:12:43.235Z,16.3
2018-09-04T03:13:33.725Z,16.2
2018-09-04T03:14:23.072Z,16.2
2018-09-04T03:15:12.841Z,16.1
2018-09-04T03:16:02.889Z,16.2
2018-09-04T03:16:52.986Z,16.2
2018-09-04T03:17:43.329Z,16.2
2018-09-04T03:18:33.372Z,16.2
2018-09-04T03:19:23.452Z,16.2
2018-09-04T03:20:13.756Z,16.2
2018-09-04T03:21:03.616Z,16.2
2018-09-04T03:21:53.700Z,16.2
2018-09-04T03:22:43.728Z,16.2
2018-09-04T03:23:33.484Z,16.3
2018-09-04T03:24:24.121Z,16.2
2018-09-04T03:25:14.728Z,16.2
2018-09-04T03:26:04.021Z,16.3
2018-09-04T03:26:54.018Z,16.3
2018-09-04T03:27:44.103Z,16.3
2018-09-04T03:28:34.148Z,16.3
2018-09-04T03:29:24.223Z,16.3
2018-09-04T03:30:14.581Z,16.3
2018-09-04T03:31:04.952Z,16.3
2018-09-04T03:31:54.733Z,16.4
2018-09-04T03:32:44.196Z,16.4
2018-09-04T03:33:33.958Z,16.4
2018-09-04T03:34:25.175Z,16.4
2018-09-04T03:35:14.660Z,16.4
2018-09-04T03:36:04.672Z,16.4
2018-09-04T03:36:54.795Z,16.4
2018-09-04T03:37:44.852Z,16.4
2018-09-04T03:38:35.182Z,16.4
2018-09-04T03:39:24.682Z,16.4
2018-09-04T03:40:15.330Z,16.4
2018-09-04T03:41:05.340Z,16.4
2018-09-04T03:41:55.187Z,16.5
2018-09-04T03:42:45.292Z,16.4
2018-09-04T03:43:35.595Z,16.4
2018-09-04T03:44:25.403Z,16.4
2018-09-04T03:45:15.455Z,16.4
2018-09-04T03:46:05.274Z,16.4
2018-09-04T03:46:55.806Z,16.4
2018-09-04T03:47:45.639Z,16.4
2018-09-04T03:48:35.987Z,16.4
2018-09-04T03:49:25.704Z,16.4
2018-09-04T03:50:15.812Z,16.4
2018-09-04T03:51:05.680Z,16.3
2018-09-04T03:51:55.961Z,16.3
2018-09-04T03:52:46.304Z,16.3
2018-09-04T03:53:35.774Z,16.3
2018-09-04T03:54:26.138Z,16.2
2018-09-04T03:55:15.923Z,16.1
2018-09-04T03:56:06.829Z,16.1
2018-09-04T03:56:56.594Z,16.2
2018-09-04T03:57:46.429Z,16.1
2018-09-04T03:58:36.478Z,16.1
2018-09-04T03:59:26.833Z,16.1
2018-09-04T04:00:16.288Z,16
2018-09-04T04:01:06.418Z,16
2018-09-04T04:01:56.486Z,16
2018-09-04T04:02:46.496Z,16
2018-09-04T04:03:36.293Z,16
2018-09-04T04:04:27.230Z,16.1
2018-09-04T04:05:17.259Z,16.1
2018-09-04T04:06:06.455Z,16
2018-09-04T04:06:57.375Z,16
2018-09-04T04:07:47.186Z,16
2018-09-04T04:08:37.236Z,16
2018-09-04T04:09:27.596Z,16
2018-09-04T04:10:17.087Z,16
2018-09-04T04:11:07.455Z,16
2018-09-04T04:11:58.595Z,15.9
2018-09-04T04:12:47.836Z,16
2018-09-04T04:13:37.336Z,16
2018-09-04T04:14:28.021Z,15.9
2018-09-04T04:15:17.743Z,16
2018-09-04T04:16:08.092Z,16
2018-09-04T04:16:57.538Z,16
2018-09-04T04:17:47.925Z,16
2018-09-04T04:18:38.288Z,16.1
2018-09-04T04:19:28.362Z,16.1
2018-09-04T04:20:18.689Z,16.1
2018-09-04T04:21:08.482Z,16.1
2018-09-04T04:21:58.538Z,16.1
2018-09-04T04:22:48.618Z,16.1
2018-09-04T04:23:38.397Z,16.2
2018-09-04T04:24:28.740Z,16.3
2018-09-04T04:25:18.522Z,16.3
2018-09-04T04:26:08.867Z,16.3
2018-09-04T04:26:58.889Z,16.4
2018-09-04T04:27:48.714Z,16.4
2018-09-04T04:28:38.773Z,16.4
2018-09-04T04:29:28.244Z,16.4
2018-09-04T04:30:19.184Z,16.4
2018-09-04T04:31:09.237Z,16.4
2018-09-04T04:31:59.036Z,16.4
2018-09-04T04:32:48.716Z,16.5
2018-09-04T04:33:39.461Z,16.6
2018-09-04T04:34:29.234Z,16.6
2018-09-04T04:35:19.291Z,16.6
2018-09-04T04:36:09.633Z,16.7
2018-09-04T04:36:59.124Z,16.7
2018-09-04T04:37:49.765Z,16.7
2018-09-04T04:38:39.576Z,16.8
2018-09-04T04:39:29.613Z,16.6
2018-09-04T04:40:19.389Z,16.7
2018-09-04T04:41:10.022Z,16.7
2018-09-04T04:41:59.546Z,16.6
2018-09-04T04:42:49.871Z,16.7
2018-09-04T05:00:29.560Z,16.9
2018-09-04T05:01:18.402Z,16.9
2018-09-04T05:02:08.764Z,16.9
2018-09-04T05:02:59.065Z,16.8
2018-09-04T05:03:48.614Z,16.8
2018-09-04T05:04:38.962Z,16.9
2018-09-04T05:05:29.110Z,16.9
2018-09-04T05:06:19.379Z,16.9
2018-09-04T05:07:08.846Z,16.9
2018-09-04T05:07:59.206Z,16.9
2018-09-04T05:08:48.994Z,16.9
2018-09-04T05:09:39.338Z,16.8
2018-09-04T05:10:28.801Z,16.8
2018-09-04T05:11:20.352Z,16.8
2018-09-04T05:12:09.522Z,16.8
2018-09-04T05:12:59.587Z,16.8
2018-09-04T05:13:49.361Z,16.8
2018-09-04T05:14:39.731Z,16.8
2018-09-04T05:15:29.481Z,16.8
2018-09-04T05:16:19.581Z,16.8
2018-09-04T05:17:09.044Z,16.8
2018-09-04T05:17:59.693Z,16.8
2018-09-04T05:18:49.521Z,16.9
2018-09-04T05:19:39.630Z,16.9
2018-09-04T05:20:29.881Z,16.9
2018-09-04T05:21:19.936Z,16.9
2018-09-04T05:22:10.046Z,16.9
2018-09-04T05:23:00.357Z,16.9
2018-09-04T05:23:50.135Z,16.9
2018-09-04T05:24:39.905Z,16.8
2018-09-04T05:25:30.526Z,16.8
2018-09-04T05:26:20.595Z,16.8
2018-09-04T05:27:10.170Z,16.9
2018-09-04T05:27:59.936Z,16.9
2018-09-04T05:28:51.053Z,16.9
2018-09-04T05:29:40.883Z,16.9
2018-09-04T05:30:30.655Z,16.9
2018-09-04T05:33:51.150Z,17.1
2018-09-04T05:34:40.952Z,17.1
2018-09-04T05:35:31.020Z,17.1
2018-09-04T05:36:21.632Z,17.2
2018-09-04T05:37:10.867Z,17.1
2018-09-04T05:38:01.217Z,17.1
2018-09-04T05:38:51.831Z,17.1
2018-09-04T05:39:41.039Z,17.1
2018-09-04T05:40:31.419Z,17.1
2018-09-04T05:41:21.192Z,17.1
2018-09-04T05:42:12.099Z,17.2
2018-09-04T05:43:01.917Z,17.1
2018-09-04T05:43:52.237Z,17.1
2018-09-04T05:44:41.815Z,17.1
2018-09-04T05:45:32.163Z,17.1
2018-09-04T05:46:22.155Z,17.1
2018-09-04T05:47:11.932Z,17.1
2018-09-04T05:48:01.696Z,17.1
2018-09-04T05:48:52.063Z,17.2
2018-09-04T05:49:42.068Z,17.2
2018-09-04T05:50:32.182Z,17.3
2018-09-04T05:51:22.274Z,17.3
2018-09-04T05:52:11.612Z,17.4
2018-09-04T05:53:02.674Z,17.5
2018-09-04T05:53:52.433Z,17.5
2018-09-04T05:54:42.505Z,17.5
2018-09-04T05:55:32.847Z,17.4
2018-09-04T05:56:22.913Z,17.4
2018-09-04T05:57:12.691Z,17.4
2018-09-04T05:58:02.573Z,17.4
2018-09-04T05:58:53.131Z,17.4
2018-09-04T05:59:42.882Z,17.4
2018-09-04T06:00:33.261Z,17.4
2018-09-04T06:01:23.315Z,17.5
2018-09-04T06:02:13.673Z,17.6
2018-09-04T06:03:03.428Z,17.7
2018-09-04T06:03:53.519Z,17.8
2018-09-04T06:04:43.569Z,17.8
2018-09-04T06:05:33.635Z,17.8
2018-09-04T06:06:23.106Z,17.9
2018-09-04T06:07:13.773Z,17.9
2018-09-04T06:08:03.821Z,17.9
2018-09-04T06:08:53.594Z,17.9
2018-09-04T06:09:43.378Z,18
2018-09-04T06:10:33.724Z,18
2018-09-04T06:11:24.066Z,18.1
2018-09-04T06:12:13.559Z,18.2
2018-09-04T06:13:04.520Z,18.2
2018-09-04T06:13:54.079Z,18.3
2018-09-04T06:14:44.576Z,18.3
2018-09-04T06:15:34.110Z,18.3
2018-09-04T06:16:23.408Z,18.3
2018-09-04T06:17:14.527Z,18.3
2018-09-04T06:18:04.295Z,18.3
2018-09-04T06:18:54.127Z,18.3
2018-09-04T06:19:44.710Z,18.4
2018-09-04T06:20:34.511Z,18.3
2018-09-04T06:21:24.834Z,18.2
2018-09-04T06:22:14.328Z,18.3
2018-09-04T06:23:05.267Z,18.3
2018-09-04T06:23:54.763Z,18.4
2018-09-04T06:24:45.100Z,18.4
2018-09-04T06:25:35.198Z,18.4
2018-09-04T06:26:25.252Z,18.4
2018-09-04T06:27:15.018Z,18.5
2018-09-04T06:28:05.623Z,18.5
2018-09-04T06:28:54.895Z,18.6
2018-09-04T06:29:45.307Z,18.6
2018-09-04T06:31:25.878Z,18.8
2018-09-04T06:32:15.703Z,18.8
2018-09-04T06:33:06.121Z,18.8
2018-09-04T06:34:45.008Z,18.6
2018-09-04T06:35:36.301Z,18.8
2018-09-04T06:36:26.030Z,18.8
2018-09-04T06:37:16.038Z,18.8
2018-09-04T06:38:06.140Z,18.8
2018-09-04T06:38:55.941Z,18.8
2018-09-04T06:39:45.979Z,18.8
2018-09-04T06:42:16.726Z,18.8
2018-09-04T06:43:06.225Z,18.9
2018-09-04T06:43:56.098Z,18.9
2018-09-04T06:44:46.353Z,18.9
2018-09-04T06:45:36.718Z,18.9
2018-09-04T06:46:27.041Z,19.1
2018-09-04T06:47:16.581Z,19.3
2018-09-04T06:48:06.903Z,19.2
2018-09-04T06:48:57.026Z,19.3
2018-09-04T06:49:46.780Z,19.2
2018-09-04T06:50:37.080Z,19.2
2018-09-04T06:51:27.141Z,19.2
2018-09-04T06:52:16.633Z,19.1
2018-09-04T06:53:07.540Z,19.1
2018-09-04T06:53:57.065Z,19.2
2018-09-04T06:54:47.892Z,19.1
2018-09-04T06:55:37.180Z,19.3
2018-09-04T06:56:27.595Z,19.3
2018-09-04T06:57:17.610Z,19.4
2018-09-04T06:58:07.090Z,19.6
2018-09-04T06:58:57.447Z,19.7
2018-09-04T06:59:47.816Z,19.8
2018-09-04T07:00:37.581Z,19.9
2018-09-04T07:01:27.359Z,19.9
2018-09-04T07:02:17.220Z,19.9
2018-09-04T07:03:08.059Z,20.1
2018-09-04T07:03:58.148Z,19.8
2018-09-04T07:04:48.212Z,19.6
2018-09-04T07:05:38.240Z,19.4
2018-09-04T07:06:28.048Z,19.4
2018-09-04T07:07:18.364Z,19.4
2018-09-04T07:08:08.444Z,19.4
2018-09-04T07:08:58.509Z,19.6
2018-09-04T07:09:48.649Z,19.8
2018-09-04T07:10:38.352Z,19.9
2018-09-04T07:11:28.671Z,19.9
2018-09-04T07:12:18.776Z,20.1
2018-09-04T07:13:08.849Z,19.8
2018-09-04T07:13:58.881Z,19.7
2018-09-04T07:14:48.959Z,19.8
2018-09-04T07:15:38.804Z,20
2018-09-04T07:16:29.052Z,20.1
2018-09-04T07:17:19.159Z,20.2
2018-09-04T07:18:09.230Z,20.1
2018-09-04T07:18:59.326Z,20.1
2018-09-04T07:19:49.059Z,20.1
2018-09-04T07:20:39.412Z,20.1
2018-09-04T07:21:29.491Z,20.1
2018-09-04T07:22:19.539Z,20.2
2018-09-04T07:23:09.316Z,20.3
2018-09-04T07:23:59.965Z,20.4
2018-09-04T07:24:49.779Z,20.6
2018-09-04T07:25:39.799Z,20.9
2018-09-04T07:26:30.110Z,21
2018-09-04T07:28:59.517Z,21
2018-09-04T07:29:50.371Z,20.9
2018-09-04T07:30:39.892Z,20.9
2018-09-04T07:31:30.010Z,20.9
2018-09-04T07:32:20.030Z,20.9
2018-09-04T07:33:10.371Z,20.9
2018-09-04T07:34:00.153Z,20.8
2018-09-04T07:34:50.495Z,20.9
2018-09-04T07:35:40.572Z,20.8
2018-09-04T07:36:30.161Z,20.9
2018-09-04T07:37:20.405Z,20.8
2018-09-04T07:38:10.762Z,20.7
2018-09-04T07:39:00.817Z,20.6
2018-09-04T07:39:50.877Z,20.5
2018-09-04T07:40:41.282Z,20.6
2018-09-04T07:41:31.077Z,20.8
2018-09-04T07:42:20.795Z,20.9
2018-09-04T07:43:10.863Z,21.1
2018-09-04T07:44:50.422Z,21.3
2018-09-04T07:45:41.041Z,21.4
2018-09-04T07:46:31.147Z,21.8
2018-09-04T07:47:21.175Z,21.9
2018-09-04T07:48:11.578Z,22
2018-09-04T07:49:01.346Z,22.3
2018-09-04T07:49:51.657Z,22.1
2018-09-04T07:50:41.414Z,21.9
2018-09-04T07:51:31.764Z,21.7
2018-09-04T07:52:21.848Z,21.8
2018-09-04T07:53:11.623Z,21.6
2018-09-04T07:54:01.687Z,21.3
2018-09-04T07:54:52.059Z,21.6
2018-09-04T07:55:42.095Z,22
2018-09-04T07:56:32.152Z,22.3
2018-09-04T07:57:21.961Z,22.7
2018-09-04T07:58:12.296Z,22.6
2018-09-04T07:59:02.363Z,22.6
2018-09-04T07:59:52.123Z,22.8
2018-09-04T08:00:41.903Z,22.3
2018-09-04T08:01:32.526Z,21.8
2018-09-04T08:02:22.336Z,21.6
2018-09-04T08:03:12.672Z,22
2018-09-04T08:04:02.453Z,22.6
2018-09-04T08:04:52.521Z,22.8
2018-09-04T08:05:42.288Z,23.1
2018-09-04T08:06:32.933Z,22.8
2018-09-04T08:07:23.266Z,21.9
2018-09-04T08:08:12.773Z,21.9
2018-09-04T08:09:02.566Z,21.7
2018-09-04T08:09:52.612Z,21.7
2018-09-04T08:10:43.283Z,22.5
2018-09-04T08:11:33.310Z,23.1
2018-09-04T08:12:23.645Z,23.1
2018-09-04T08:13:13.450Z,23.1
2018-09-04T08:14:03.517Z,22.9
2018-09-04T08:14:52.802Z,22.6
2018-09-04T08:15:43.660Z,22.8
2018-09-04T08:16:33.728Z,23.2
2018-09-04T08:17:23.725Z,23.5
2018-09-04T08:18:13.537Z,23.4
2018-09-04T08:19:03.915Z,23.3
2018-09-04T08:19:53.400Z,23.4
2018-09-04T08:20:44.537Z,23.4
2018-09-04T08:21:34.105Z,23.4
2018-09-04T08:22:24.162Z,23.6
2018-09-04T08:23:13.939Z,23.8
2018-09-04T09:14:59.119Z,26.4
2018-09-04T09:15:48.974Z,26.7
2018-09-04T09:16:39.209Z,27.4
2018-09-04T09:17:28.749Z,27.5
2018-09-04T09:18:19.379Z,27.7
2018-09-04T09:19:09.194Z,27.5
2018-09-04T09:19:59.291Z,27.7
2018-09-04T09:20:48.996Z,27.5
2018-09-04T09:21:39.096Z,27.4
2018-09-04T09:22:29.402Z,27.1
2018-09-04T09:23:19.756Z,27.3
2018-09-04T09:24:09.268Z,27.6
2018-09-04T09:24:59.856Z,27.6
2018-09-04T09:25:49.911Z,27.1
2018-09-04T09:26:39.983Z,27.1
2018-09-04T09:27:29.259Z,26.9
2018-09-04T09:28:19.866Z,26.5
2018-09-04T09:29:09.351Z,26.6
2018-09-04T09:30:00.014Z,26.9
2018-09-04T09:30:50.068Z,27
2018-09-04T09:31:40.143Z,27.1
2018-09-04T09:32:29.928Z,27.4
2018-09-04T09:33:20.273Z,27.6
2018-09-04T09:34:10.567Z,27.7
2018-09-04T09:35:00.285Z,27.8
2018-09-04T09:35:50.188Z,27
2018-09-04T09:36:40.669Z,27.1
2018-09-04T09:37:30.605Z,27.1
2018-09-04T09:38:20.373Z,26.9
2018-09-04T09:39:10.983Z,26.9
2018-09-04T09:40:00.535Z,26.9
2018-09-04T09:40:50.283Z,27.5
2018-09-04T09:41:40.891Z,27.6
2018-09-04T09:42:30.705Z,27.6
2018-09-04T09:43:21.032Z,27.8
2018-09-04T09:45:01.428Z,28.2
2018-09-04T09:45:51.288Z,28.3
2018-09-04T09:46:41.027Z,28.3
2018-09-04T09:47:31.616Z,28
2018-09-04T09:48:21.140Z,28.2
2018-09-04T09:49:11.827Z,28.4
2018-09-04T09:50:00.722Z,28.4
2018-09-04T09:50:52.737Z,28.5
2018-09-04T09:51:41.697Z,28.6
2018-09-04T09:52:32.046Z,28.6
2018-09-04T09:53:24.183Z,28.6
2018-09-04T09:54:11.897Z,28.6
2018-09-04T09:55:01.983Z,29.1
2018-09-04T09:55:52.085Z,29.1
2018-09-04T09:56:42.225Z,29.1
2018-09-04T09:57:32.088Z,29.2
2018-09-04T09:58:21.414Z,29
2018-09-04T09:59:12.277Z,29.2
2018-09-04T10:00:03.095Z,29.1
2018-09-04T10:00:52.847Z,29.2
2018-09-04T10:01:42.369Z,29.3
2018-09-04T10:02:32.688Z,28.8
2018-09-04T10:03:22.628Z,28.6
2018-09-04T10:04:13.071Z,28.7
2018-09-04T10:05:02.747Z,29
2018-09-04T10:05:52.492Z,29.3
2018-09-04T10:06:42.876Z,29.5
2018-09-04T10:07:33.943Z,29.7
2018-09-04T10:08:22.951Z,29.4
2018-09-04T10:09:12.836Z,29.6
2018-09-04T10:10:03.448Z,29.6
2018-09-04T10:10:52.912Z,29.7
2018-09-04T10:11:42.940Z,29.4
2018-09-04T10:12:33.261Z,29.3
2018-09-04T10:13:23.327Z,29.4
2018-09-04T10:14:13.410Z,29.8
2018-09-04T10:15:18.920Z,29.6
2018-09-04T10:15:53.284Z,29.5
2018-09-04T10:16:43.584Z,29.4
2018-09-04T10:17:33.709Z,29.4
2018-09-04T10:18:23.443Z,29.6
2018-09-04T10:19:13.541Z,29.2
2018-09-04T10:20:04.280Z,28.4
2018-09-04T10:20:54.480Z,28.4
2018-09-04T10:21:43.999Z,28.1
2018-09-04T10:22:33.794Z,28.1
2018-09-04T10:23:23.891Z,27.7
2018-09-04T10:25:03.790Z,28.3
2018-09-04T10:25:54.628Z,28.9
2018-09-04T10:26:44.636Z,29
2018-09-04T10:27:34.714Z,28.9
2018-09-04T10:28:24.579Z,29
2018-09-04T10:29:14.299Z,29.3
2018-09-04T10:30:04.396Z,28.8
2018-09-04T10:30:54.692Z,28.8
2018-09-04T10:31:44.165Z,29.1
2018-09-04T10:32:34.815Z,29.4
2018-09-04T10:33:24.374Z,29.6
2018-09-04T10:34:14.690Z,29.6
2018-09-04T10:35:05.044Z,30
2018-09-04T10:35:55.332Z,30.1
2018-09-04T10:36:45.161Z,29.8
2018-09-04T10:37:35.665Z,29.4
2018-09-04T10:38:26.441Z,29.8
2018-09-04T16:15:50.900Z,28.5
2018-09-04T16:16:40.406Z,28.3
2018-09-04T16:17:31.018Z,28.3
2018-09-04T16:18:21.115Z,28.4
2018-09-04T16:19:11.166Z,28.4
2018-09-04T16:20:01.681Z,28.4
2018-09-04T16:20:52.026Z,28.4
2018-09-04T16:21:42.043Z,28.1
2018-09-04T16:22:31.578Z,28.1
2018-09-04T16:23:21.646Z,28.1
2018-09-04T16:24:11.656Z,28.1
2018-09-04T16:25:02.086Z,28
2018-09-04T16:26:41.881Z,27.7
2018-09-04T16:27:33.477Z,27.4
2018-09-04T16:28:22.503Z,27.4
2018-09-04T16:29:12.856Z,27.4
2018-09-04T16:30:52.731Z,27.1
2018-09-04T16:31:42.500Z,26.8
2018-09-04T16:32:33.372Z,26.1
2018-09-04T16:33:22.700Z,25.8
2018-09-04T16:34:13.152Z,25.5
2018-09-04T16:35:03.927Z,25.3
2018-09-04T16:35:53.089Z,25.1
2018-09-04T16:36:57.907Z,25.1
2018-09-04T16:37:34.309Z,25
2018-09-04T16:38:23.358Z,24.9
2018-09-04T16:39:12.911Z,24.9
2018-09-04T16:40:02.989Z,24.8
2018-09-04T16:40:53.764Z,24.8
2018-09-04T16:41:42.739Z,24.8
2018-09-04T16:42:33.435Z,24.8
2018-09-04T16:43:23.490Z,24.8
2018-09-04T16:44:13.561Z,24.7
2018-09-04T16:45:03.635Z,24.6
2018-09-04T16:45:53.418Z,24.6
2018-09-04T16:46:44.091Z,24.6
2018-09-04T16:47:33.014Z,24.5
2018-09-04T16:48:24.127Z,24.4
2018-09-04T16:49:28.234Z,24.4
2018-09-04T16:50:03.975Z,24.4
2018-09-04T16:50:54.066Z,24.3
2018-09-04T16:51:44.701Z,24.3
2018-09-04T16:52:33.944Z,24.3
2018-09-04T16:53:24.516Z,24.3
2018-09-04T16:54:14.854Z,24.3
2018-09-04T16:55:04.913Z,24.1
2018-09-04T16:55:53.655Z,24
2018-09-04T16:56:44.542Z,24
2018-09-04T16:57:35.159Z,23.9
2018-09-04T16:58:24.663Z,23.8
2018-09-04T16:59:14.180Z,23.8
2018-09-04T17:00:04.794Z,23.8
2018-09-04T17:00:54.617Z,23.8
2018-09-04T17:01:45.495Z,23.8
2018-09-04T17:02:34.981Z,23.7
2018-09-04T17:03:25.124Z,23.7
2018-09-04T17:04:29.708Z,23.6
2018-09-04T17:05:05.877Z,23.6
2018-09-04T17:05:56.030Z,23.6
2018-09-04T17:06:45.346Z,23.6
2018-09-04T17:07:35.678Z,23.6
2018-09-04T17:08:25.772Z,23.5
2018-09-04T17:09:15.437Z,23.5
2018-09-04T17:10:05.318Z,23.4
2018-09-04T17:10:55.705Z,23.4
2018-09-04T17:11:45.823Z,23.4
2018-09-04T17:12:36.056Z,23.4
2018-09-04T17:13:25.901Z,23.3
2018-09-04T17:14:16.342Z,23.3
2018-09-04T17:15:05.695Z,23.3
2018-09-04T17:16:10.636Z,23.3
2018-09-04T17:16:45.831Z,23.3
2018-09-04T17:17:51.330Z,23.2
2018-09-04T17:18:25.260Z,23.1
2018-09-04T17:19:16.729Z,23.1
2018-09-04T17:20:06.113Z,23.1
2018-09-04T17:20:56.233Z,23.1
2018-09-04T17:21:47.316Z,23.1
2018-09-04T17:22:36.589Z,23.1
2018-09-04T17:23:26.684Z,23
2018-09-04T17:24:16.687Z,23
2018-09-04T17:25:06.810Z,23
2018-09-04T17:25:56.982Z,23
2018-09-04T17:27:01.485Z,23
2018-09-04T17:27:36.664Z,22.9
2018-09-04T17:28:27.327Z,22.9
2018-09-04T17:29:17.304Z,22.9
2018-09-04T17:30:06.902Z,22.9
2018-09-04T17:30:58.215Z,22.8
2018-09-04T17:32:01.660Z,22.8
2018-09-04T17:32:37.591Z,22.8
2018-09-04T17:33:26.986Z,22.6
2018-09-04T17:34:17.009Z,22.5
2018-09-04T17:35:07.098Z,22.5
2018-09-04T17:35:56.880Z,22.6
2018-09-04T17:36:46.958Z,22.6
2018-09-04T17:37:37.253Z,22.5
2018-09-04T17:38:27.639Z,22.5
2018-09-04T17:39:17.136Z,22.4
2018-09-04T17:40:21.854Z,22.4
2018-09-04T17:40:57.281Z,22.4
2018-09-04T17:41:47.610Z,22.4
2018-09-04T17:42:37.673Z,22.4
2018-09-04T17:43:27.438Z,22.4
2018-09-04T17:44:17.248Z,22.4
2018-09-04T17:45:07.881Z,22.4
2018-09-04T17:45:57.658Z,22.3
2018-09-04T17:46:47.721Z,22.3
2018-09-04T17:47:37.800Z,22.3
2018-09-04T17:48:28.161Z,22.2
2018-09-04T17:49:18.588Z,22.1
2018-09-04T17:50:08.276Z,22.1
2018-09-04T17:50:58.326Z,22.1
2018-09-04T17:51:48.100Z,22.1
2018-09-04T17:52:38.185Z,22.1
2018-09-04T17:53:28.543Z,22.1
2018-09-04T17:54:18.605Z,22.1
2018-09-04T17:55:08.408Z,22
2018-09-04T17:55:58.730Z,22
2018-09-04T17:56:48.511Z,22
2018-09-04T17:57:38.575Z,22
2018-09-04T17:58:28.648Z,22
2018-09-04T17:59:18.988Z,21.9
2018-09-04T18:00:08.768Z,22
2018-09-04T18:00:59.672Z,21.9
2018-09-04T18:01:49.181Z,21.9
2018-09-04T18:02:39.228Z,21.9
2018-09-04T18:03:29.046Z,21.9
2018-09-04T18:04:19.110Z,21.8
2018-09-04T18:05:09.180Z,21.8
2018-09-04T18:05:59.512Z,21.8
2018-09-04T18:06:49.010Z,21.9
2018-09-04T18:07:39.387Z,21.8
2018-09-04T18:08:29.735Z,21.8
2018-09-04T18:09:19.283Z,21.8
2018-09-04T18:10:09.622Z,21.8
2018-09-04T18:10:59.389Z,21.8
2018-09-04T18:11:50.014Z,21.8
2018-09-04T18:12:40.119Z,21.8
2018-09-04T18:13:30.159Z,21.8
2018-09-04T18:14:20.156Z,21.8
2018-09-04T18:15:09.709Z,21.8
2018-09-04T18:15:59.238Z,21.8
2018-09-04T18:16:50.060Z,21.8
2018-09-04T18:17:40.413Z,21.8
2018-09-04T18:18:30.181Z,21.8
2018-09-04T18:19:20.598Z,21.7
2018-09-04T18:20:10.660Z,21.7
2018-09-04T18:21:00.674Z,21.7
2018-09-04T18:21:50.196Z,21.6
2018-09-04T18:22:40.543Z,21.6
2018-09-04T18:23:30.665Z,21.6
2018-09-04T18:24:20.955Z,21.6
2018-09-04T18:25:10.768Z,21.6
2018-09-04T18:26:00.770Z,21.6
2018-09-04T18:26:51.138Z,21.6